sensor_id;sensor_type;location;lat;lon;timestamp;P1;durP1;ratioP1;P2;durP2;ratioP2
28613;SDS011;15806;53.548;9.964;2023-02-22T00:00:35;38.20;;;11.33;;
28613;SDS011;15806;53.548;9.964;2023-02-22T00:02:17;35.70;;;9.77;;
28613;SDS011;15806;53.548;9.964;2023-02-22T00:03:57;41.87;;;9.80;;
28613;SDS011;15806;53.548;9.964;2023-02-22T00:05:38;40.83;;;11.27;;
28613;SDS011;15806;53.548;9.964;2023-02-22T00:07:18;50.93;;;12.17;;
28613;SDS011;15806;53.548;9.964;2023-02-22T00:08:59;49.87;;;12.40;;
28613;SDS011;15806;53.548;9.964;2023-02-22T00:10:40;49.50;;;12.07;;
28613;SDS011;15806;53.548;9.964;2023-02-22T00:12:20;50.10;;;14.13;;
28613;SDS011;15806;53.548;9.964;2023-02-22T00:14:01;53.90;;;13.20;;
28613;SDS011;15806;53.548;9.964;2023-02-22T00:15:41;57.83;;;14.43;;
28613;SDS011;15806;53.548;9.964;2023-02-22T00:17:22;69.80;;;14.73;;
28613;SDS011;15806;53.548;9.964;2023-02-22T00:19:02;57.07;;;11.27;;
28613;SDS011;15806;53.548;9.964;2023-02-22T00:20:43;56.73;;;12.87;;
28613;SDS011;15806;53.548;9.964;2023-02-22T00:22:24;64.53;;;13.43;;
28613;SDS011;15806;53.548;9.964;2023-02-22T00:24:04;58.57;;;12.60;;
28613;SDS011;15806;53.548;9.964;2023-02-22T00:25:45;62.43;;;11.70;;
28613;SDS011;15806;53.548;9.964;2023-02-22T00:27:27;60.97;;;12.57;;
28613;SDS011;15806;53.548;9.964;2023-02-22T00:29:07;68.23;;;13.33;;
28613;SDS011;15806;53.548;9.964;2023-02-22T00:30:48;65.53;;;11.50;;
28613;SDS011;15806;53.548;9.964;2023-02-22T00:34:10;64.30;;;14.50;;
28613;SDS011;15806;53.548;9.964;2023-02-22T00:35:52;63.28;;;13.07;;
28613;SDS011;15806;53.548;9.964;2023-02-22T00:37:33;71.70;;;12.23;;
28613;SDS011;15806;53.548;9.964;2023-02-22T00:39:13;53.60;;;11.87;;
28613;SDS011;15806;53.548;9.964;2023-02-22T00:40:54;70.95;;;12.43;;
28613;SDS011;15806;53.548;9.964;2023-02-22T00:42:35;56.53;;;12.53;;
28613;SDS011;15806;53.548;9.964;2023-02-22T00:44:16;72.97;;;14.27;;
28613;SDS011;15806;53.548;9.964;2023-02-22T00:45:56;62.27;;;12.93;;
28613;SDS011;15806;53.548;9.964;2023-02-22T00:47:37;81.60;;;13.03;;
28613;SDS011;15806;53.548;9.964;2023-02-22T00:49:17;84.60;;;13.17;;
28613;SDS011;15806;53.548;9.964;2023-02-22T00:50:58;72.77;;;12.50;;
28613;SDS011;15806;53.548;9.964;2023-02-22T00:52:38;94.90;;;12.97;;
28613;SDS011;15806;53.548;9.964;2023-02-22T00:54:19;64.47;;;12.03;;
28613;SDS011;15806;53.548;9.964;2023-02-22T00:55:59;70.27;;;13.27;;
28613;SDS011;15806;53.548;9.964;2023-02-22T00:57:40;83.40;;;13.23;;
28613;SDS011;15806;53.548;9.964;2023-02-22T00:59:20;83.17;;;14.50;;
28613;SDS011;15806;53.548;9.964;2023-02-22T01:01:01;77.17;;;14.20;;
28613;SDS011;15806;53.548;9.964;2023-02-22T01:02:42;72.80;;;15.03;;
28613;SDS011;15806;53.548;9.964;2023-02-22T01:04:22;74.07;;;13.70;;
28613;SDS011;15806;53.548;9.964;2023-02-22T01:06:03;74.40;;;13.47;;
28613;SDS011;15806;53.548;9.964;2023-02-22T01:07:44;73.27;;;12.50;;
28613;SDS011;15806;53.548;9.964;2023-02-22T01:09:25;74.40;;;13.68;;
28613;SDS011;15806;53.548;9.964;2023-02-22T01:11:05;73.40;;;13.17;;
28613;SDS011;15806;53.548;9.964;2023-02-22T01:12:46;68.30;;;13.77;;
28613;SDS011;15806;53.548;9.964;2023-02-22T01:14:27;71.07;;;13.00;;
28613;SDS011;15806;53.548;9.964;2023-02-22T01:16:08;77.30;;;13.87;;
28613;SDS011;15806;53.548;9.964;2023-02-22T01:17:49;80.87;;;11.90;;
28613;SDS011;15806;53.548;9.964;2023-02-22T01:19:31;70.35;;;13.00;;
28613;SDS011;15806;53.548;9.964;2023-02-22T01:21:12;69.93;;;13.38;;
28613;SDS011;15806;53.548;9.964;2023-02-22T01:22:53;88.83;;;13.07;;
28613;SDS011;15806;53.548;9.964;2023-02-22T01:24:35;67.15;;;11.30;;
28613;SDS011;15806;53.548;9.964;2023-02-22T01:26:15;88.90;;;12.80;;
28613;SDS011;15806;53.548;9.964;2023-02-22T01:27:57;67.55;;;11.38;;
28613;SDS011;15806;53.548;9.964;2023-02-22T01:29:39;63.33;;;10.25;;
28613;SDS011;15806;53.548;9.964;2023-02-22T01:31:20;66.10;;;12.63;;
28613;SDS011;15806;53.548;9.964;2023-02-22T01:33:02;79.37;;;12.90;;
28613;SDS011;15806;53.548;9.964;2023-02-22T01:34:43;78.15;;;14.57;;
28613;SDS011;15806;53.548;9.964;2023-02-22T01:36:24;80.83;;;14.20;;
28613;SDS011;15806;53.548;9.964;2023-02-22T01:38:05;70.13;;;12.10;;
28613;SDS011;15806;53.548;9.964;2023-02-22T01:39:46;72.70;;;13.63;;
28613;SDS011;15806;53.548;9.964;2023-02-22T01:41:26;68.60;;;13.60;;
28613;SDS011;15806;53.548;9.964;2023-02-22T01:43:18;86.73;;;14.30;;
28613;SDS011;15806;53.548;9.964;2023-02-22T01:47:21;74.90;;;12.98;;
28613;SDS011;15806;53.548;9.964;2023-02-22T01:49:02;84.13;;;14.03;;
28613;SDS011;15806;53.548;9.964;2023-02-22T01:50:49;78.38;;;13.68;;
28613;SDS011;15806;53.548;9.964;2023-02-22T01:52:36;87.38;;;13.95;;
28613;SDS011;15806;53.548;9.964;2023-02-22T01:54:19;100.73;;;14.27;;
28613;SDS011;15806;53.548;9.964;2023-02-22T01:56:06;84.43;;;12.35;;
28613;SDS011;15806;53.548;9.964;2023-02-22T01:57:47;105.70;;;15.65;;
28613;SDS011;15806;53.548;9.964;2023-02-22T01:59:28;70.03;;;11.52;;
28613;SDS011;15806;53.548;9.964;2023-02-22T02:01:13;91.47;;;13.70;;
28613;SDS011;15806;53.548;9.964;2023-02-22T02:02:57;94.88;;;15.60;;
28613;SDS011;15806;53.548;9.964;2023-02-22T02:04:43;74.30;;;12.50;;
28613;SDS011;15806;53.548;9.964;2023-02-22T02:06:25;74.20;;;12.35;;
28613;SDS011;15806;53.548;9.964;2023-02-22T02:08:09;78.80;;;11.75;;
28613;SDS011;15806;53.548;9.964;2023-02-22T02:10:13;80.75;;;13.23;;
28613;SDS011;15806;53.548;9.964;2023-02-22T02:11:54;87.50;;;12.05;;
28613;SDS011;15806;53.548;9.964;2023-02-22T02:13:38;80.55;;;13.10;;
28613;SDS011;15806;53.548;9.964;2023-02-22T02:15:30;92.20;;;12.03;;
28613;SDS011;15806;53.548;9.964;2023-02-22T02:17:12;82.57;;;12.93;;
28613;SDS011;15806;53.548;9.964;2023-02-22T02:18:55;93.95;;;15.30;;
28613;SDS011;15806;53.548;9.964;2023-02-22T02:22:46;88.78;;;13.60;;
28613;SDS011;15806;53.548;9.964;2023-02-22T02:35:10;95.70;;;13.90;;
28613;SDS011;15806;53.548;9.964;2023-02-22T02:38:56;108.05;;;12.13;;
28613;SDS011;15806;53.548;9.964;2023-02-22T02:42:37;104.90;;;14.20;;
28613;SDS011;15806;53.548;9.964;2023-02-22T02:47:55;101.63;;;14.18;;
28613;SDS011;15806;53.548;9.964;2023-02-22T02:49:47;110.88;;;14.40;;
28613;SDS011;15806;53.548;9.964;2023-02-22T02:51:35;95.50;;;15.27;;
28613;SDS011;15806;53.548;9.964;2023-02-22T02:53:20;101.80;;;13.95;;
28613;SDS011;15806;53.548;9.964;2023-02-22T02:55:04;115.75;;;11.88;;
28613;SDS011;15806;53.548;9.964;2023-02-22T02:56:47;118.57;;;11.95;;
28613;SDS011;15806;53.548;9.964;2023-02-22T03:00:09;84.40;;;11.07;;
28613;SDS011;15806;53.548;9.964;2023-02-22T03:06:10;92.18;;;12.13;;
28613;SDS011;15806;53.548;9.964;2023-02-22T03:12:12;103.50;;;14.48;;
28613;SDS011;15806;53.548;9.964;2023-02-22T03:14:15;74.47;;;13.02;;
28613;SDS011;15806;53.548;9.964;2023-02-22T03:16:08;119.05;;;14.27;;
28613;SDS011;15806;53.548;9.964;2023-02-22T03:18:08;91.95;;;13.27;;
28613;SDS011;15806;53.548;9.964;2023-02-22T03:19:57;80.72;;;12.70;;
28613;SDS011;15806;53.548;9.964;2023-02-22T03:25:39;93.60;;;12.23;;
28613;SDS011;15806;53.548;9.964;2023-02-22T03:27:36;91.28;;;12.98;;
28613;SDS011;15806;53.548;9.964;2023-02-22T03:29:21;93.13;;;13.43;;
28613;SDS011;15806;53.548;9.964;2023-02-22T03:31:08;87.50;;;12.55;;
28613;SDS011;15806;53.548;9.964;2023-02-22T03:32:59;78.55;;;13.60;;
28613;SDS011;15806;53.548;9.964;2023-02-22T03:34:57;89.80;;;13.30;;
28613;SDS011;15806;53.548;9.964;2023-02-22T03:36:43;95.22;;;12.90;;
28613;SDS011;15806;53.548;9.964;2023-02-22T03:38:27;91.50;;;13.32;;
28613;SDS011;15806;53.548;9.964;2023-02-22T03:40:13;89.88;;;14.60;;
28613;SDS011;15806;53.548;9.964;2023-02-22T03:42:44;99.50;;;12.18;;
28613;SDS011;15806;53.548;9.964;2023-02-22T03:44:09;92.90;;;14.88;;
28613;SDS011;15806;53.548;9.964;2023-02-22T03:45:53;87.32;;;15.73;;
28613;SDS011;15806;53.548;9.964;2023-02-22T03:47:38;90.03;;;14.83;;
28613;SDS011;15806;53.548;9.964;2023-02-22T03:49:35;99.82;;;16.52;;
28613;SDS011;15806;53.548;9.964;2023-02-22T03:51:36;75.97;;;13.48;;
28613;SDS011;15806;53.548;9.964;2023-02-22T03:53:17;94.15;;;14.95;;
28613;SDS011;15806;53.548;9.964;2023-02-22T03:55:00;104.60;;;18.10;;
28613;SDS011;15806;53.548;9.964;2023-02-22T03:58:57;80.22;;;14.57;;
28613;SDS011;15806;53.548;9.964;2023-02-22T04:00:38;85.93;;;16.77;;
28613;SDS011;15806;53.548;9.964;2023-02-22T04:02:19;88.90;;;16.58;;
28613;SDS011;15806;53.548;9.964;2023-02-22T04:04:00;76.40;;;14.63;;
28613;SDS011;15806;53.548;9.964;2023-02-22T04:05:40;81.50;;;15.57;;
28613;SDS011;15806;53.548;9.964;2023-02-22T04:07:21;84.63;;;15.03;;
28613;SDS011;15806;53.548;9.964;2023-02-22T04:09:01;83.33;;;15.07;;
28613;SDS011;15806;53.548;9.964;2023-02-22T04:10:42;66.03;;;13.50;;
28613;SDS011;15806;53.548;9.964;2023-02-22T04:12:22;67.07;;;13.43;;
28613;SDS011;15806;53.548;9.964;2023-02-22T04:14:03;77.00;;;13.40;;
28613;SDS011;15806;53.548;9.964;2023-02-22T04:15:43;82.20;;;15.60;;
28613;SDS011;15806;53.548;9.964;2023-02-22T04:17:24;54.10;;;12.17;;
28613;SDS011;15806;53.548;9.964;2023-02-22T04:19:04;60.37;;;12.77;;
28613;SDS011;15806;53.548;9.964;2023-02-22T04:20:45;70.90;;;14.33;;
28613;SDS011;15806;53.548;9.964;2023-02-22T04:22:25;67.90;;;14.03;;
28613;SDS011;15806;53.548;9.964;2023-02-22T04:24:06;68.60;;;12.10;;
28613;SDS011;15806;53.548;9.964;2023-02-22T04:25:46;48.87;;;12.00;;
28613;SDS011;15806;53.548;9.964;2023-02-22T04:27:27;60.83;;;12.73;;
28613;SDS011;15806;53.548;9.964;2023-02-22T04:29:07;66.80;;;14.23;;
28613;SDS011;15806;53.548;9.964;2023-02-22T04:30:48;58.77;;;12.97;;
28613;SDS011;15806;53.548;9.964;2023-02-22T04:32:29;71.50;;;15.20;;
28613;SDS011;15806;53.548;9.964;2023-02-22T04:34:09;61.07;;;13.03;;
28613;SDS011;15806;53.548;9.964;2023-02-22T04:35:50;65.73;;;13.93;;
28613;SDS011;15806;53.548;9.964;2023-02-22T04:37:30;58.17;;;13.50;;
28613;SDS011;15806;53.548;9.964;2023-02-22T04:39:11;63.83;;;13.83;;
28613;SDS011;15806;53.548;9.964;2023-02-22T04:40:52;50.93;;;11.97;;
28613;SDS011;15806;53.548;9.964;2023-02-22T04:42:36;52.15;;;13.50;;
28613;SDS011;15806;53.548;9.964;2023-02-22T04:44:17;58.95;;;12.88;;
28613;SDS011;15806;53.548;9.964;2023-02-22T04:45:57;57.60;;;12.20;;
28613;SDS011;15806;53.548;9.964;2023-02-22T04:47:38;58.03;;;11.30;;
28613;SDS011;15806;53.548;9.964;2023-02-22T04:49:18;53.20;;;11.02;;
28613;SDS011;15806;53.548;9.964;2023-02-22T04:50:59;50.87;;;10.60;;
28613;SDS011;15806;53.548;9.964;2023-02-22T04:52:39;51.57;;;12.93;;
28613;SDS011;15806;53.548;9.964;2023-02-22T04:54:20;50.70;;;10.27;;
28613;SDS011;15806;53.548;9.964;2023-02-22T04:56:00;63.50;;;10.80;;
28613;SDS011;15806;53.548;9.964;2023-02-22T04:57:41;60.17;;;12.57;;
28613;SDS011;15806;53.548;9.964;2023-02-22T04:59:22;64.83;;;11.13;;
28613;SDS011;15806;53.548;9.964;2023-02-22T05:01:02;54.33;;;11.80;;
28613;SDS011;15806;53.548;9.964;2023-02-22T05:02:43;62.55;;;11.30;;
28613;SDS011;15806;53.548;9.964;2023-02-22T05:04:24;68.63;;;13.15;;
28613;SDS011;15806;53.548;9.964;2023-02-22T05:06:05;62.93;;;13.03;;
28613;SDS011;15806;53.548;9.964;2023-02-22T05:07:46;53.50;;;10.87;;
28613;SDS011;15806;53.548;9.964;2023-02-22T05:09:28;57.28;;;12.40;;
28613;SDS011;15806;53.548;9.964;2023-02-22T05:11:08;60.53;;;12.80;;
28613;SDS011;15806;53.548;9.964;2023-02-22T05:12:49;59.63;;;12.60;;
28613;SDS011;15806;53.548;9.964;2023-02-22T05:14:29;67.97;;;11.90;;
28613;SDS011;15806;53.548;9.964;2023-02-22T05:16:10;67.77;;;13.13;;
28613;SDS011;15806;53.548;9.964;2023-02-22T05:17:51;59.00;;;12.50;;
28613;SDS011;15806;53.548;9.964;2023-02-22T05:19:32;71.53;;;12.05;;
28613;SDS011;15806;53.548;9.964;2023-02-22T05:21:12;70.60;;;13.33;;
28613;SDS011;15806;53.548;9.964;2023-02-22T05:22:54;62.07;;;12.63;;
28613;SDS011;15806;53.548;9.964;2023-02-22T05:26:15;69.82;;;13.48;;
28613;SDS011;15806;53.548;9.964;2023-02-22T05:27:57;57.83;;;12.37;;
28613;SDS011;15806;53.548;9.964;2023-02-22T05:29:39;63.83;;;12.82;;
28613;SDS011;15806;53.548;9.964;2023-02-22T05:31:20;70.40;;;13.90;;
28613;SDS011;15806;53.548;9.964;2023-02-22T05:33:00;79.23;;;14.40;;
28613;SDS011;15806;53.548;9.964;2023-02-22T05:34:41;75.90;;;12.77;;
28613;SDS011;15806;53.548;9.964;2023-02-22T05:36:21;62.37;;;11.93;;
28613;SDS011;15806;53.548;9.964;2023-02-22T05:38:02;70.70;;;11.03;;
28613;SDS011;15806;53.548;9.964;2023-02-22T05:39:44;72.70;;;12.75;;
28613;SDS011;15806;53.548;9.964;2023-02-22T05:41:24;65.53;;;13.17;;
28613;SDS011;15806;53.548;9.964;2023-02-22T05:43:05;78.83;;;13.37;;
28613;SDS011;15806;53.548;9.964;2023-02-22T05:44:45;70.33;;;13.43;;
28613;SDS011;15806;53.548;9.964;2023-02-22T05:46:26;78.60;;;15.03;;
28613;SDS011;15806;53.548;9.964;2023-02-22T05:48:06;82.33;;;12.90;;
28613;SDS011;15806;53.548;9.964;2023-02-22T05:49:47;78.27;;;13.57;;
28613;SDS011;15806;53.548;9.964;2023-02-22T05:51:27;79.43;;;11.43;;
28613;SDS011;15806;53.548;9.964;2023-02-22T05:53:08;84.43;;;11.37;;
28613;SDS011;15806;53.548;9.964;2023-02-22T05:54:49;79.00;;;12.87;;
28613;SDS011;15806;53.548;9.964;2023-02-22T05:56:29;81.07;;;12.30;;
28613;SDS011;15806;53.548;9.964;2023-02-22T05:58:10;63.30;;;11.13;;
28613;SDS011;15806;53.548;9.964;2023-02-22T05:59:50;73.37;;;11.30;;
28613;SDS011;15806;53.548;9.964;2023-02-22T06:01:31;78.00;;;12.80;;
28613;SDS011;15806;53.548;9.964;2023-02-22T06:03:11;84.70;;;14.03;;
28613;SDS011;15806;53.548;9.964;2023-02-22T06:04:52;93.43;;;14.33;;
28613;SDS011;15806;53.548;9.964;2023-02-22T06:06:33;75.27;;;12.97;;
28613;SDS011;15806;53.548;9.964;2023-02-22T06:08:13;75.37;;;12.60;;
28613;SDS011;15806;53.548;9.964;2023-02-22T06:09:54;81.20;;;14.47;;
28613;SDS011;15806;53.548;9.964;2023-02-22T06:11:34;84.07;;;14.70;;
28613;SDS011;15806;53.548;9.964;2023-02-22T06:13:15;87.13;;;12.60;;
28613;SDS011;15806;53.548;9.964;2023-02-22T06:14:55;80.97;;;14.57;;
28613;SDS011;15806;53.548;9.964;2023-02-22T06:16:36;88.23;;;12.80;;
28613;SDS011;15806;53.548;9.964;2023-02-22T06:18:17;102.05;;;13.60;;
28613;SDS011;15806;53.548;9.964;2023-02-22T06:19:57;86.20;;;13.20;;
28613;SDS011;15806;53.548;9.964;2023-02-22T06:21:38;80.93;;;14.20;;
28613;SDS011;15806;53.548;9.964;2023-02-22T06:23:19;83.00;;;12.63;;
28613;SDS011;15806;53.548;9.964;2023-02-22T06:25:01;88.23;;;14.77;;
28613;SDS011;15806;53.548;9.964;2023-02-22T06:26:42;86.97;;;13.15;;
28613;SDS011;15806;53.548;9.964;2023-02-22T06:28:23;83.37;;;11.93;;
28613;SDS011;15806;53.548;9.964;2023-02-22T06:30:03;90.63;;;13.57;;
28613;SDS011;15806;53.548;9.964;2023-02-22T06:31:44;102.55;;;13.25;;
28613;SDS011;15806;53.548;9.964;2023-02-22T06:33:25;92.23;;;14.60;;
28613;SDS011;15806;53.548;9.964;2023-02-22T06:35:05;92.33;;;15.57;;
28613;SDS011;15806;53.548;9.964;2023-02-22T06:36:47;93.30;;;14.05;;
28613;SDS011;15806;53.548;9.964;2023-02-22T06:38:28;90.80;;;15.77;;
28613;SDS011;15806;53.548;9.964;2023-02-22T06:40:08;90.07;;;13.83;;
28613;SDS011;15806;53.548;9.964;2023-02-22T06:41:49;80.93;;;13.95;;
28613;SDS011;15806;53.548;9.964;2023-02-22T06:43:30;89.67;;;15.73;;
28613;SDS011;15806;53.548;9.964;2023-02-22T06:45:10;113.07;;;15.17;;
28613;SDS011;15806;53.548;9.964;2023-02-22T06:46:51;82.33;;;14.37;;
28613;SDS011;15806;53.548;9.964;2023-02-22T06:48:31;97.93;;;15.37;;
28613;SDS011;15806;53.548;9.964;2023-02-22T06:50:25;94.20;;;16.77;;
28613;SDS011;15806;53.548;9.964;2023-02-22T06:52:09;109.25;;;15.82;;
28613;SDS011;15806;53.548;9.964;2023-02-22T06:53:50;93.80;;;16.80;;
28613;SDS011;15806;53.548;9.964;2023-02-22T06:55:31;98.80;;;16.80;;
28613;SDS011;15806;53.548;9.964;2023-02-22T06:57:13;92.53;;;15.68;;
28613;SDS011;15806;53.548;9.964;2023-02-22T06:58:53;92.57;;;15.83;;
28613;SDS011;15806;53.548;9.964;2023-02-22T07:00:34;95.47;;;15.57;;
28613;SDS011;15806;53.548;9.964;2023-02-22T07:02:14;107.07;;;16.73;;
28613;SDS011;15806;53.548;9.964;2023-02-22T07:03:55;71.53;;;13.37;;
28613;SDS011;15806;53.548;9.964;2023-02-22T07:05:36;101.77;;;13.83;;
28613;SDS011;15806;53.548;9.964;2023-02-22T07:07:16;91.87;;;14.40;;
28613;SDS011;15806;53.548;9.964;2023-02-22T07:08:57;97.77;;;14.60;;
28613;SDS011;15806;53.548;9.964;2023-02-22T07:10:38;107.07;;;17.10;;
28613;SDS011;15806;53.548;9.964;2023-02-22T07:12:19;95.80;;;14.57;;
28613;SDS011;15806;53.548;9.964;2023-02-22T07:14:00;92.70;;;13.97;;
28613;SDS011;15806;53.548;9.964;2023-02-22T07:15:40;83.93;;;12.60;;
28613;SDS011;15806;53.548;9.964;2023-02-22T07:17:21;75.80;;;12.07;;
28613;SDS011;15806;53.548;9.964;2023-02-22T07:19:01;68.53;;;14.10;;
28613;SDS011;15806;53.548;9.964;2023-02-22T07:20:42;80.80;;;13.80;;
28613;SDS011;15806;53.548;9.964;2023-02-22T07:22:22;67.63;;;13.77;;
28613;SDS011;15806;53.548;9.964;2023-02-22T07:24:03;75.13;;;14.00;;
28613;SDS011;15806;53.548;9.964;2023-02-22T07:25:44;72.95;;;14.63;;
28613;SDS011;15806;53.548;9.964;2023-02-22T07:27:24;76.17;;;14.10;;
28613;SDS011;15806;53.548;9.964;2023-02-22T07:29:05;86.90;;;15.57;;
28613;SDS011;15806;53.548;9.964;2023-02-22T07:30:46;66.93;;;12.60;;
28613;SDS011;15806;53.548;9.964;2023-02-22T07:32:26;88.77;;;15.23;;
28613;SDS011;15806;53.548;9.964;2023-02-22T07:34:07;77.70;;;13.03;;
28613;SDS011;15806;53.548;9.964;2023-02-22T07:35:48;85.40;;;14.57;;
28613;SDS011;15806;53.548;9.964;2023-02-22T07:37:29;80.93;;;15.90;;
28613;SDS011;15806;53.548;9.964;2023-02-22T07:39:10;75.70;;;15.17;;
28613;SDS011;15806;53.548;9.964;2023-02-22T07:40:50;76.53;;;14.47;;
28613;SDS011;15806;53.548;9.964;2023-02-22T07:42:31;70.97;;;14.40;;
28613;SDS011;15806;53.548;9.964;2023-02-22T07:44:11;67.47;;;11.97;;
28613;SDS011;15806;53.548;9.964;2023-02-22T07:45:53;76.10;;;13.33;;
28613;SDS011;15806;53.548;9.964;2023-02-22T07:47:35;74.40;;;13.77;;
28613;SDS011;15806;53.548;9.964;2023-02-22T07:49:15;69.83;;;15.90;;
28613;SDS011;15806;53.548;9.964;2023-02-22T07:50:56;79.50;;;13.10;;
28613;SDS011;15806;53.548;9.964;2023-02-22T07:52:37;72.63;;;13.90;;
28613;SDS011;15806;53.548;9.964;2023-02-22T07:54:18;68.53;;;12.30;;
28613;SDS011;15806;53.548;9.964;2023-02-22T07:55:59;70.63;;;14.97;;
28613;SDS011;15806;53.548;9.964;2023-02-22T07:57:42;71.35;;;13.10;;
28613;SDS011;15806;53.548;9.964;2023-02-22T07:59:24;68.03;;;12.07;;
28613;SDS011;15806;53.548;9.964;2023-02-22T08:01:04;69.30;;;12.10;;
28613;SDS011;15806;53.548;9.964;2023-02-22T08:02:45;67.57;;;12.83;;
28613;SDS011;15806;53.548;9.964;2023-02-22T08:04:26;64.93;;;13.52;;
28613;SDS011;15806;53.548;9.964;2023-02-22T08:06:06;56.73;;;12.80;;
28613;SDS011;15806;53.548;9.964;2023-02-22T08:07:47;64.33;;;12.83;;
28613;SDS011;15806;53.548;9.964;2023-02-22T08:09:28;61.67;;;13.93;;
28613;SDS011;15806;53.548;9.964;2023-02-22T08:11:08;57.63;;;12.40;;
28613;SDS011;15806;53.548;9.964;2023-02-22T08:12:49;64.93;;;13.93;;
28613;SDS011;15806;53.548;9.964;2023-02-22T08:14:30;54.95;;;12.38;;
28613;SDS011;15806;53.548;9.964;2023-02-22T08:16:10;51.63;;;11.53;;
28613;SDS011;15806;53.548;9.964;2023-02-22T08:17:51;64.10;;;13.67;;
28613;SDS011;15806;53.548;9.964;2023-02-22T08:19:31;64.63;;;13.77;;
28613;SDS011;15806;53.548;9.964;2023-02-22T08:21:12;72.00;;;13.27;;
28613;SDS011;15806;53.548;9.964;2023-02-22T08:22:52;60.63;;;13.63;;
28613;SDS011;15806;53.548;9.964;2023-02-22T08:24:33;66.13;;;12.80;;
28613;SDS011;15806;53.548;9.964;2023-02-22T08:26:14;60.10;;;11.70;;
28613;SDS011;15806;53.548;9.964;2023-02-22T08:27:58;48.90;;;11.23;;
28613;SDS011;15806;53.548;9.964;2023-02-22T08:29:40;48.67;;;11.05;;
28613;SDS011;15806;53.548;9.964;2023-02-22T08:31:20;56.83;;;11.73;;
28613;SDS011;15806;53.548;9.964;2023-02-22T08:33:01;57.40;;;12.83;;
28613;SDS011;15806;53.548;9.964;2023-02-22T08:34:42;55.00;;;11.98;;
28613;SDS011;15806;53.548;9.964;2023-02-22T08:36:23;55.80;;;12.30;;
28613;SDS011;15806;53.548;9.964;2023-02-22T08:38:04;61.57;;;11.83;;
28613;SDS011;15806;53.548;9.964;2023-02-22T08:39:46;66.20;;;15.18;;
28613;SDS011;15806;53.548;9.964;2023-02-22T08:41:26;55.40;;;11.63;;
28613;SDS011;15806;53.548;9.964;2023-02-22T08:43:07;43.40;;;12.57;;
28613;SDS011;15806;53.548;9.964;2023-02-22T08:44:47;48.60;;;12.50;;
28613;SDS011;15806;53.548;9.964;2023-02-22T08:46:28;42.20;;;11.30;;
28613;SDS011;15806;53.548;9.964;2023-02-22T08:48:08;49.00;;;12.50;;
28613;SDS011;15806;53.548;9.964;2023-02-22T08:49:49;51.77;;;11.83;;
28613;SDS011;15806;53.548;9.964;2023-02-22T08:51:32;43.60;;;12.23;;
28613;SDS011;15806;53.548;9.964;2023-02-22T08:53:14;48.03;;;12.25;;
28613;SDS011;15806;53.548;9.964;2023-02-22T08:54:55;46.83;;;11.00;;
28613;SDS011;15806;53.548;9.964;2023-02-22T08:56:35;42.53;;;11.80;;
28613;SDS011;15806;53.548;9.964;2023-02-22T08:58:16;38.97;;;10.53;;
28613;SDS011;15806;53.548;9.964;2023-02-22T08:59:57;59.60;;;14.10;;
28613;SDS011;15806;53.548;9.964;2023-02-22T09:01:37;44.80;;;11.40;;
28613;SDS011;15806;53.548;9.964;2023-02-22T09:03:18;50.53;;;14.17;;
28613;SDS011;15806;53.548;9.964;2023-02-22T09:04:58;41.57;;;12.13;;
28613;SDS011;15806;53.548;9.964;2023-02-22T09:06:39;44.57;;;12.63;;
28613;SDS011;15806;53.548;9.964;2023-02-22T09:08:21;40.42;;;11.40;;
28613;SDS011;15806;53.548;9.964;2023-02-22T09:10:01;43.23;;;12.93;;
28613;SDS011;15806;53.548;9.964;2023-02-22T09:11:42;45.33;;;12.10;;
28613;SDS011;15806;53.548;9.964;2023-02-22T09:13:22;40.03;;;10.07;;
28613;SDS011;15806;53.548;9.964;2023-02-22T09:15:03;43.17;;;13.23;;
28613;SDS011;15806;53.548;9.964;2023-02-22T09:16:43;38.27;;;10.03;;
28613;SDS011;15806;53.548;9.964;2023-02-22T09:18:25;46.00;;;10.37;;
28613;SDS011;15806;53.548;9.964;2023-02-22T09:20:07;47.35;;;12.57;;
28613;SDS011;15806;53.548;9.964;2023-02-22T09:21:54;50.47;;;12.15;;
28613;SDS011;15806;53.548;9.964;2023-02-22T09:23:35;43.72;;;11.55;;
28613;SDS011;15806;53.548;9.964;2023-02-22T09:25:16;49.83;;;12.43;;
28613;SDS011;15806;53.548;9.964;2023-02-22T09:26:57;55.10;;;15.73;;
28613;SDS011;15806;53.548;9.964;2023-02-22T09:28:38;43.87;;;10.97;;
28613;SDS011;15806;53.548;9.964;2023-02-22T09:32:06;43.60;;;13.23;;
28613;SDS011;15806;53.548;9.964;2023-02-22T09:33:47;42.87;;;11.87;;
28613;SDS011;15806;53.548;9.964;2023-02-22T09:35:27;45.07;;;10.83;;
28613;SDS011;15806;53.548;9.964;2023-02-22T09:37:08;44.33;;;11.63;;
28613;SDS011;15806;53.548;9.964;2023-02-22T09:38:49;35.50;;;11.70;;
28613;SDS011;15806;53.548;9.964;2023-02-22T09:40:30;37.47;;;10.63;;
28613;SDS011;15806;53.548;9.964;2023-02-22T09:42:27;36.40;;;11.18;;
28613;SDS011;15806;53.548;9.964;2023-02-22T09:44:17;32.90;;;9.68;;
28613;SDS011;15806;53.548;9.964;2023-02-22T09:46:08;29.95;;;9.60;;
28613;SDS011;15806;53.548;9.964;2023-02-22T09:47:57;35.28;;;10.00;;
28613;SDS011;15806;53.548;9.964;2023-02-22T09:49:42;34.17;;;11.00;;
28613;SDS011;15806;53.548;9.964;2023-02-22T09:53:34;28.15;;;9.05;;
28613;SDS011;15806;53.548;9.964;2023-02-22T09:57:13;30.77;;;9.50;;
28613;SDS011;15806;53.548;9.964;2023-02-22T09:58:58;29.38;;;9.48;;
28613;SDS011;15806;53.548;9.964;2023-02-22T10:00:41;32.03;;;9.82;;
28613;SDS011;15806;53.548;9.964;2023-02-22T10:02:29;33.28;;;9.15;;
28613;SDS011;15806;53.548;9.964;2023-02-22T10:04:27;30.42;;;9.02;;
28613;SDS011;15806;53.548;9.964;2023-02-22T10:06:22;27.52;;;9.20;;
28613;SDS011;15806;53.548;9.964;2023-02-22T10:08:05;29.10;;;9.73;;
28613;SDS011;15806;53.548;9.964;2023-02-22T10:09:51;32.90;;;9.38;;
28613;SDS011;15806;53.548;9.964;2023-02-22T10:11:40;28.85;;;8.90;;
28613;SDS011;15806;53.548;9.964;2023-02-22T10:13:42;30.98;;;9.98;;
28613;SDS011;15806;53.548;9.964;2023-02-22T10:18:12;27.83;;;9.07;;
28613;SDS011;15806;53.548;9.964;2023-02-22T10:25:21;28.33;;;8.10;;
28613;SDS011;15806;53.548;9.964;2023-02-22T10:27:05;32.38;;;9.82;;
28613;SDS011;15806;53.548;9.964;2023-02-22T10:29:00;25.20;;;8.82;;
28613;SDS011;15806;53.548;9.964;2023-02-22T10:30:48;29.08;;;10.02;;
28613;SDS011;15806;53.548;9.964;2023-02-22T10:32:31;27.95;;;9.73;;
28613;SDS011;15806;53.548;9.964;2023-02-22T10:34:21;25.70;;;9.48;;
28613;SDS011;15806;53.548;9.964;2023-02-22T10:36:04;28.45;;;9.57;;
28613;SDS011;15806;53.548;9.964;2023-02-22T10:37:45;26.55;;;9.02;;
28613;SDS011;15806;53.548;9.964;2023-02-22T10:39:32;25.83;;;9.30;;
28613;SDS011;15806;53.548;9.964;2023-02-22T10:41:21;29.52;;;10.77;;
28613;SDS011;15806;53.548;9.964;2023-02-22T10:43:08;24.77;;;9.65;;
28613;SDS011;15806;53.548;9.964;2023-02-22T10:44:49;30.07;;;9.93;;
28613;SDS011;15806;53.548;9.964;2023-02-22T10:46:29;29.00;;;11.03;;
28613;SDS011;15806;53.548;9.964;2023-02-22T10:48:14;29.27;;;11.52;;
28613;SDS011;15806;53.548;9.964;2023-02-22T10:49:57;30.50;;;10.38;;
28613;SDS011;15806;53.548;9.964;2023-02-22T10:51:39;34.58;;;11.77;;
28613;SDS011;15806;53.548;9.964;2023-02-22T10:53:20;32.23;;;11.57;;
28613;SDS011;15806;53.548;9.964;2023-02-22T10:55:01;28.13;;;11.07;;